createdAt,value
2018-11-07T00:02:11.037Z,52.03
2018-11-07T00:04:39.913Z,53.23
2018-11-07T00:07:08.754Z,56.83
2018-11-07T00:09:37.564Z,53.57
2018-11-07T00:12:06.547Z,55.50
2018-11-07T00:14:35.406Z,54.20
2018-11-07T00:17:04.287Z,54.60
2018-11-07T00:19:33.113Z,57.73
2018-11-07T00:22:02.238Z,52.00
2018-11-07T00:24:31.024Z,60.03
2018-11-07T00:26:59.891Z,63.73
2018-11-07T00:29:28.742Z,62.97
2018-11-07T00:31:57.678Z,71.10
2018-11-07T00:34:26.626Z,58.67
2018-11-07T00:36:55.465Z,70.20
2018-11-07T00:39:24.321Z,62.47
2018-11-07T00:41:53.237Z,58.83
2018-11-07T00:44:22.025Z,63.07
2018-11-07T00:46:50.829Z,67.27
2018-11-07T00:49:19.666Z,66.90
2018-11-07T00:51:48.492Z,63.40
2018-11-07T00:54:17.330Z,70.40
2018-11-07T00:56:46.142Z,78.57
2018-11-07T00:59:15.045Z,74.77
2018-11-07T01:01:43.928Z,65.30
2018-11-07T01:04:12.872Z,66.47
2018-11-07T01:06:41.736Z,70.40
2018-11-07T01:09:12.413Z,62.63
2018-11-07T01:11:42.582Z,63.33
2018-11-07T01:14:11.786Z,66.07
2018-11-07T01:16:40.611Z,65.60
2018-11-07T01:19:09.474Z,66.80
2018-11-07T01:21:38.268Z,71.67
2018-11-07T01:24:07.138Z,80.30
2018-11-07T01:26:35.981Z,78.50
2018-11-07T01:29:04.811Z,71.53
2018-11-07T01:31:33.659Z,73.07
2018-11-07T01:34:02.474Z,67.17
2018-11-07T01:36:31.333Z,67.73
2018-11-07T01:39:00.137Z,67.50
2018-11-07T01:41:28.991Z,67.13
2018-11-07T01:43:57.864Z,64.77
2018-11-07T01:46:26.714Z,63.47
2018-11-07T01:48:55.551Z,75.60
2018-11-07T01:51:24.369Z,76.50
2018-11-07T01:53:53.229Z,56.70
2018-11-07T01:56:22.046Z,66.13
2018-11-07T01:58:50.959Z,65.20
2018-11-07T02:01:19.751Z,60.20
2018-11-07T02:03:48.608Z,66.93
2018-11-07T02:06:17.477Z,63.97
2018-11-07T02:08:46.297Z,64.43
2018-11-07T02:11:15.164Z,62.53
2018-11-07T02:13:43.999Z,66.73
2018-11-07T02:16:12.858Z,68.10
2018-11-07T02:18:41.712Z,66.30
2018-11-07T02:21:10.558Z,62.33
2018-11-07T02:23:39.378Z,61.77
2018-11-07T02:26:08.234Z,62.60
2018-11-07T02:28:37.106Z,60.67
2018-11-07T02:31:06.110Z,69.73
2018-11-07T02:33:34.912Z,73.83
2018-11-07T02:36:03.788Z,67.87
2018-11-07T02:38:32.597Z,71.80
2018-11-07T02:41:01.463Z,73.60
2018-11-07T02:43:30.270Z,74.50
2018-11-07T02:45:59.092Z,64.93
2018-11-07T02:48:27.904Z,67.77
2018-11-07T02:50:56.694Z,69.27
2018-11-07T02:53:25.548Z,69.80
2018-11-07T02:55:54.366Z,64.33
2018-11-07T02:58:23.221Z,64.03
2018-11-07T03:00:52.120Z,64.23
2018-11-07T03:03:21.012Z,60.50
2018-11-07T03:05:49.885Z,63.57
2018-11-07T03:08:18.710Z,66.27
2018-11-07T03:10:47.567Z,68.83
2018-11-07T03:13:16.396Z,64.77
2018-11-07T03:15:45.205Z,68.67
2018-11-07T03:18:14.042Z,66.17
2018-11-07T03:20:42.882Z,67.33
2018-11-07T03:23:11.721Z,59.23
2018-11-07T03:25:40.535Z,63.17
2018-11-07T03:28:09.346Z,73.00
2018-11-07T03:30:38.197Z,63.93
2018-11-07T03:33:07.046Z,68.73
2018-11-07T03:35:35.835Z,63.03
2018-11-07T03:38:04.769Z,64.57
2018-11-07T03:40:33.606Z,61.40
2018-11-07T03:43:02.412Z,62.63
2018-11-07T03:45:36.471Z,73.97
2018-11-07T03:48:05.356Z,66.60
2018-11-07T03:50:34.173Z,56.73
2018-11-07T03:53:02.972Z,64.40
2018-11-07T03:55:31.850Z,66.30
2018-11-07T03:58:00.678Z,65.23
2018-11-07T04:00:29.558Z,60.10
2018-11-07T04:02:58.478Z,59.43
2018-11-07T04:05:27.280Z,62.43
2018-11-07T04:07:56.125Z,56.30
2018-11-07T04:10:24.954Z,61.67
2018-11-07T04:12:53.790Z,65.33
2018-11-07T04:15:22.598Z,64.17
2018-11-07T04:17:51.489Z,64.17
2018-11-07T04:20:20.297Z,70.93
2018-11-07T04:22:49.133Z,65.13
2018-11-07T04:25:17.956Z,70.50
2018-11-07T04:27:46.784Z,74.37
2018-11-07T04:30:15.578Z,60.57
2018-11-07T04:32:44.461Z,65.30
2018-11-07T04:35:13.604Z,62.73
2018-11-07T04:37:42.832Z,64.77
2018-11-07T04:40:12.855Z,74.63
2018-11-07T04:42:42.116Z,68.30
2018-11-07T04:45:10.937Z,68.97
2018-11-07T04:47:39.783Z,66.20
2018-11-07T04:50:10.037Z,63.23
2018-11-07T04:52:39.210Z,56.63
2018-11-07T04:55:08.067Z,60.13
2018-11-07T04:57:37.032Z,69.03
2018-11-07T05:00:08.944Z,63.67
2018-11-07T05:02:37.737Z,71.13
2018-11-07T05:05:06.674Z,67.00
2018-11-07T05:07:35.471Z,62.93
2018-11-07T05:10:04.585Z,67.33
2018-11-07T05:12:33.491Z,70.87
2018-11-07T05:15:02.386Z,70.77
2018-11-07T05:17:31.149Z,72.57
2018-11-07T05:20:00.067Z,63.60
2018-11-07T05:22:28.879Z,65.23
2018-11-07T05:24:57.718Z,71.53
2018-11-07T05:27:26.517Z,76.93
2018-11-07T05:29:55.340Z,69.40
2018-11-07T05:32:24.134Z,65.53
2018-11-07T05:34:53.003Z,64.43
2018-11-07T05:37:21.824Z,61.67
2018-11-07T05:39:50.674Z,63.20
2018-11-07T05:42:19.472Z,65.30
2018-11-07T05:44:48.457Z,71.87
2018-11-07T05:47:17.241Z,62.73
2018-11-07T05:49:46.066Z,66.70
2018-11-07T05:52:14.859Z,64.37
2018-11-07T05:54:43.691Z,60.87
2018-11-07T05:57:12.549Z,61.30
2018-11-07T05:59:41.331Z,67.60
2018-11-07T06:02:10.198Z,65.53
2018-11-07T06:04:39.026Z,54.97
2018-11-07T06:07:07.969Z,62.53
2018-11-07T06:09:36.841Z,65.20
2018-11-07T06:12:05.828Z,57.60
2018-11-07T06:14:34.622Z,65.57
2018-11-07T06:17:03.485Z,63.87
2018-11-07T06:19:32.278Z,58.53
2018-11-07T06:22:01.587Z,56.27
2018-11-07T06:24:30.500Z,58.97
2018-11-07T06:26:59.264Z,59.00
2018-11-07T06:29:28.089Z,65.57
2018-11-07T06:31:56.875Z,60.43
2018-11-07T06:34:25.707Z,58.40
2018-11-07T06:36:54.539Z,55.90
2018-11-07T06:39:23.416Z,58.77
2018-11-07T06:41:52.204Z,58.73
2018-11-07T06:44:21.070Z,65.10
2018-11-07T06:46:49.917Z,66.20
2018-11-07T06:49:18.769Z,62.30
2018-11-07T06:51:47.567Z,64.67
2018-11-07T06:54:16.372Z,60.47
2018-11-07T06:56:45.244Z,69.07
2018-11-07T06:59:14.017Z,72.47
2018-11-07T07:01:42.975Z,72.80
2018-11-07T07:04:11.784Z,65.40
2018-11-07T07:06:40.652Z,72.93
2018-11-07T07:09:10.232Z,70.23
2018-11-07T07:11:39.242Z,77.63
2018-11-07T07:14:08.706Z,79.67
2018-11-07T07:16:37.659Z,81.73
2018-11-07T07:19:06.503Z,75.23
2018-11-07T07:21:35.442Z,74.43
2018-11-07T07:24:04.384Z,69.93
2018-11-07T07:26:33.310Z,77.07
2018-11-07T07:29:02.168Z,70.87
2018-11-07T07:31:31.002Z,64.70
2018-11-07T07:33:59.839Z,70.57
2018-11-07T07:36:28.728Z,74.30
2018-11-07T07:38:57.672Z,83.60
2018-11-07T07:41:26.474Z,69.57
2018-11-07T07:43:55.325Z,75.47
2018-11-07T07:46:24.145Z,75.93
2018-11-07T07:48:53.006Z,77.97
2018-11-07T07:51:21.808Z,79.27
2018-11-07T07:53:50.648Z,86.97
2018-11-07T07:56:19.481Z,88.13
2018-11-07T07:58:48.347Z,84.80
2018-11-07T08:01:17.289Z,92.73
2018-11-07T08:03:46.116Z,95.97
2018-11-07T08:06:14.934Z,101.40
2018-11-07T08:08:43.780Z,91.90
2018-11-07T08:11:12.580Z,118.40
2018-11-07T08:13:41.494Z,112.57
2018-11-07T08:16:10.315Z,113.47
2018-11-07T08:18:39.177Z,123.17
2018-11-07T08:21:08.048Z,126.60
2018-11-07T08:23:37.030Z,127.83
2018-11-07T08:26:05.880Z,152.27
2018-11-07T08:28:34.860Z,128.63
2018-11-07T08:31:03.830Z,102.27
2018-11-07T08:33:32.608Z,94.90
2018-11-07T08:36:01.459Z,90.10
2018-11-07T08:38:30.268Z,90.30
2018-11-07T08:40:59.149Z,79.40
2018-11-07T08:43:28.007Z,82.13
2018-11-07T08:45:56.835Z,79.10
2018-11-07T08:48:25.673Z,79.10
2018-11-07T08:50:54.593Z,88.73
2018-11-07T08:53:23.389Z,76.20
2018-11-07T08:55:52.291Z,93.37
2018-11-07T08:58:21.175Z,71.50
2018-11-07T09:00:50.111Z,71.50
2018-11-07T09:03:18.965Z,70.33
2018-11-07T09:05:47.810Z,58.27
2018-11-07T09:08:16.737Z,64.33
2018-11-07T09:10:45.582Z,63.73
2018-11-07T09:13:14.622Z,65.03
2018-11-07T09:15:43.427Z,57.83
2018-11-07T09:18:12.292Z,57.90
2018-11-07T09:20:41.156Z,60.20
2018-11-07T09:23:10.123Z,62.07
2018-11-07T09:25:38.946Z,61.33
2018-11-07T09:28:07.829Z,61.70
2018-11-07T09:30:36.648Z,61.13
2018-11-07T09:33:05.844Z,60.17
2018-11-07T09:35:34.697Z,58.93
2018-11-07T09:38:03.558Z,62.27
2018-11-07T09:40:32.437Z,54.37
2018-11-07T09:43:01.319Z,60.20
2018-11-07T09:45:30.127Z,58.53
2018-11-07T09:47:59.011Z,55.77
2018-11-07T09:50:27.844Z,54.17
2018-11-07T09:52:56.742Z,56.73
2018-11-07T09:55:25.626Z,59.03
2018-11-07T09:57:54.459Z,63.03
2018-11-07T10:00:23.305Z,57.10
2018-11-07T10:02:52.404Z,58.23
2018-11-07T10:05:21.812Z,55.47
2018-11-07T10:07:50.747Z,59.73
2018-11-07T10:10:20.792Z,52.50
2018-11-07T10:12:49.944Z,55.40
2018-11-07T10:15:19.226Z,54.53
2018-11-07T10:17:48.144Z,55.27
2018-11-07T10:20:19.357Z,52.53
2018-11-07T10:22:48.662Z,57.07
2018-11-07T10:25:17.634Z,55.40
2018-11-07T10:27:46.827Z,52.97
2018-11-07T10:30:16.982Z,54.50
2018-11-07T10:32:46.835Z,46.23
2018-11-07T10:35:15.701Z,53.70
2018-11-07T10:37:44.827Z,47.53
2018-11-07T10:40:18.835Z,52.33
2018-11-07T10:42:48.278Z,46.90
2018-11-07T10:45:17.122Z,51.93
2018-11-07T10:47:46.888Z,52.83
2018-11-07T10:50:16.746Z,48.13
2018-11-07T10:52:46.311Z,44.27
2018-11-07T10:55:16.019Z,51.80
2018-11-07T10:57:44.935Z,52.93
2018-11-07T11:00:20.105Z,47.33
2018-11-07T11:03:52.199Z,46.30
2018-11-07T11:06:21.032Z,49.33
2018-11-07T11:08:53.136Z,44.63
2018-11-07T11:11:23.005Z,45.97
2018-11-07T11:13:53.050Z,50.57
2018-11-07T11:16:21.853Z,49.80
2018-11-07T11:18:50.630Z,51.33
2018-11-07T11:21:19.365Z,46.70
2018-11-07T11:23:48.318Z,43.13
2018-11-07T11:26:17.566Z,45.80
2018-11-07T11:28:46.397Z,48.77
2018-11-07T11:31:15.281Z,45.33
2018-11-07T11:33:44.151Z,42.80
2018-11-07T11:36:12.915Z,45.80
2018-11-07T11:38:41.668Z,42.07
2018-11-07T11:41:10.663Z,36.93
2018-11-07T11:43:39.460Z,46.77
2018-11-07T11:46:08.276Z,43.67
2018-11-07T11:48:37.166Z,43.50
2018-11-07T11:51:06.329Z,44.80
2018-11-07T11:53:35.268Z,39.77
2018-11-07T11:56:04.040Z,40.30
2018-11-07T11:58:32.838Z,43.80
2018-11-07T12:01:01.668Z,38.73
2018-11-07T12:03:30.711Z,41.47
2018-11-07T12:05:59.502Z,38.70
2018-11-07T12:08:28.450Z,40.67
2018-11-07T12:10:57.280Z,41.50
2018-11-07T12:13:26.234Z,42.37
2018-11-07T12:15:55.127Z,40.47
2018-11-07T12:18:23.996Z,39.93
2018-11-07T12:20:52.871Z,43.13
2018-11-07T12:23:22.016Z,39.43
2018-11-07T12:25:50.925Z,41.00
2018-11-07T12:28:19.716Z,44.20
2018-11-07T12:30:48.587Z,40.97
2018-11-07T12:33:17.422Z,39.30
2018-11-07T12:35:46.296Z,38.17
2018-11-07T12:38:15.136Z,35.93
2018-11-07T12:40:44.088Z,36.03
2018-11-07T12:43:12.965Z,43.60
2018-11-07T12:45:41.818Z,37.53
2018-11-07T12:48:10.654Z,40.20
2018-11-07T12:50:39.538Z,43.37
2018-11-07T12:53:08.424Z,39.87
2018-11-07T12:55:37.335Z,38.70
2018-11-07T12:58:06.375Z,37.53
2018-11-07T13:00:35.212Z,44.73
2018-11-07T13:03:04.111Z,40.93
2018-11-07T13:05:32.995Z,39.70
2018-11-07T13:08:01.837Z,42.63
2018-11-07T13:10:30.683Z,37.23
2018-11-07T13:12:59.482Z,37.43
2018-11-07T13:15:28.332Z,39.93
2018-11-07T13:17:57.120Z,43.47
2018-11-07T13:20:26.678Z,40.47
2018-11-07T13:22:55.888Z,43.83
2018-11-07T13:25:25.771Z,41.60
2018-11-07T13:27:54.649Z,39.17
2018-11-07T13:30:24.594Z,44.77
2018-11-07T13:32:53.494Z,41.27
2018-11-07T13:35:22.446Z,39.37
2018-11-07T13:37:52.329Z,41.90
2018-11-07T13:40:22.173Z,45.17
2018-11-07T13:42:51.052Z,37.43
2018-11-07T13:45:20.681Z,41.77
2018-11-07T13:47:50.756Z,40.90
2018-11-07T13:50:19.892Z,46.60
2018-11-07T13:52:48.932Z,41.17
2018-11-07T13:55:17.858Z,40.23
2018-11-07T13:57:46.934Z,40.77
2018-11-07T14:00:23.424Z,45.40
2018-11-07T14:02:53.213Z,40.53
2018-11-07T14:05:22.126Z,44.17
2018-11-07T14:07:50.920Z,38.53
2018-11-07T14:10:21.218Z,43.03
2018-11-07T14:12:50.357Z,40.60
2018-11-07T14:15:19.276Z,41.83
2018-11-07T14:17:48.221Z,42.33
2018-11-07T14:20:17.264Z,43.37
2018-11-07T14:22:46.149Z,37.43
2018-11-07T14:25:15.259Z,40.50
2018-11-07T14:27:44.291Z,38.37
2018-11-07T14:30:14.813Z,38.37
2018-11-07T14:33:00.693Z,39.73
2018-11-07T14:35:29.580Z,36.17
2018-11-07T14:37:58.928Z,38.83
2018-11-07T14:40:27.800Z,42.87
2018-11-07T14:42:56.984Z,37.80
2018-11-07T14:45:25.837Z,43.23
2018-11-07T14:47:54.715Z,39.37
2018-11-07T14:50:23.557Z,38.83
2018-11-07T14:52:52.390Z,35.17
2018-11-07T14:55:21.269Z,40.37
2018-11-07T14:57:50.075Z,36.30
2018-11-07T15:00:18.912Z,42.83
2018-11-07T15:02:48.088Z,40.27
2018-11-07T15:05:17.783Z,42.40
2018-11-07T15:07:46.729Z,43.83
2018-11-07T15:10:21.723Z,38.77
2018-11-07T15:12:50.520Z,37.93
2018-11-07T15:15:19.883Z,40.30
2018-11-07T15:17:48.755Z,37.83
2018-11-07T15:20:18.230Z,40.47
2018-11-07T15:22:47.058Z,39.67
2018-11-07T15:25:16.731Z,38.30
2018-11-07T15:27:46.400Z,43.30
2018-11-07T15:30:16.106Z,41.67
2018-11-07T15:32:45.360Z,39.60
2018-11-07T15:35:14.430Z,38.23
2018-11-07T15:37:43.335Z,35.63
2018-11-07T15:40:14.857Z,36.53
2018-11-07T15:42:44.120Z,36.77
2018-11-07T15:45:14.785Z,39.10
2018-11-07T15:47:44.881Z,40.33
2018-11-07T15:50:20.117Z,38.30
2018-11-07T15:52:50.674Z,37.83
2018-11-07T15:55:20.568Z,36.80
2018-11-07T15:57:50.680Z,35.20
2018-11-07T16:00:25.249Z,35.07
2018-11-07T16:02:54.295Z,41.07
2018-11-07T16:05:23.587Z,39.07
2018-11-07T16:07:53.943Z,38.67
2018-11-07T16:10:23.381Z,41.73
2018-11-07T16:12:52.732Z,37.50
2018-11-07T16:15:22.708Z,39.43
2018-11-07T16:17:54.031Z,44.30
2018-11-07T16:20:24.051Z,39.03
2018-11-07T16:22:53.064Z,35.87
2018-11-07T16:25:22.454Z,48.53
2018-11-07T16:27:52.509Z,47.13
2018-11-07T16:30:22.804Z,41.07
2018-11-07T16:32:56.746Z,42.33
2018-11-07T16:35:27.311Z,44.53
2018-11-07T16:37:57.995Z,48.33
2018-11-07T16:40:28.305Z,44.03
2018-11-07T16:42:58.827Z,39.23
2018-11-07T16:45:29.958Z,43.13
2018-11-07T16:48:00.279Z,55.13
2018-11-07T16:50:36.913Z,54.27
2018-11-07T16:53:06.469Z,49.17
2018-11-07T16:55:43.271Z,57.00
2018-11-07T16:58:12.427Z,59.97
2018-11-07T17:00:55.457Z,53.57
2018-11-07T17:03:38.235Z,49.57
2018-11-07T17:06:17.291Z,51.60
2018-11-07T17:08:48.856Z,49.50
2018-11-07T17:11:19.023Z,48.93
2018-11-07T17:13:49.533Z,45.77
2018-11-07T17:16:20.155Z,45.23
2018-11-07T17:18:51.064Z,51.53
2018-11-07T17:21:21.849Z,53.67
2018-11-07T17:23:53.091Z,49.03
2018-11-07T17:26:24.412Z,51.73
2018-11-07T17:28:55.389Z,49.23
2018-11-07T17:31:25.821Z,54.80
2018-11-07T17:33:56.127Z,49.60
2018-11-07T17:36:25.436Z,53.27
2018-11-07T17:38:54.682Z,57.03
2018-11-07T17:41:24.449Z,57.13
2018-11-07T17:43:53.736Z,53.47
2018-11-07T17:46:44.164Z,64.17
2018-11-07T17:49:26.727Z,59.43
2018-11-07T17:52:10.680Z,50.93
2018-11-07T17:54:40.256Z,52.83
2018-11-07T17:57:10.851Z,55.40
2018-11-07T17:59:40.137Z,51.97
2018-11-07T18:02:09.310Z,54.87
2018-11-07T18:04:38.424Z,50.60
2018-11-07T18:07:08.893Z,51.83
2018-11-07T18:09:39.746Z,53.57
2018-11-07T18:12:09.853Z,54.43
2018-11-07T18:14:40.478Z,61.60
2018-11-07T18:17:13.950Z,51.90
2018-11-07T18:19:56.271Z,57.87
2018-11-07T18:22:27.119Z,56.97
2018-11-07T18:24:57.915Z,53.10
2018-11-07T18:27:36.523Z,55.73
2018-11-07T18:30:07.570Z,53.63
2018-11-07T18:32:37.987Z,51.63
2018-11-07T18:35:13.668Z,53.50
2018-11-07T18:37:42.883Z,53.47
2018-11-07T18:40:13.423Z,57.73
2018-11-07T18:42:43.213Z,63.97
2018-11-07T18:45:14.085Z,60.57
2018-11-07T18:47:48.392Z,59.83
2018-11-07T18:50:21.485Z,54.67
2018-11-07T18:52:52.663Z,58.33
2018-11-07T18:55:25.713Z,65.40
2018-11-07T18:57:56.349Z,65.47
2018-11-07T19:00:26.872Z,64.30
2018-11-07T19:02:55.881Z,65.57
2018-11-07T19:05:25.345Z,60.93
2018-11-07T19:07:54.377Z,64.57
2018-11-07T19:10:23.263Z,65.20
2018-11-07T19:12:52.308Z,65.10
2018-11-07T19:15:21.162Z,63.30
2018-11-07T19:17:51.029Z,67.53
2018-11-07T19:20:20.505Z,57.73
2018-11-07T19:22:49.965Z,61.13
2018-11-07T19:25:20.233Z,58.33
2018-11-07T19:27:50.023Z,54.87
2018-11-07T19:30:20.916Z,60.37
2018-11-07T19:32:50.757Z,57.77
2018-11-07T19:35:20.261Z,62.97
2018-11-07T19:37:49.851Z,58.37
2018-11-07T19:40:21.082Z,58.13
2018-11-07T19:42:51.284Z,53.03
2018-11-07T19:45:21.065Z,62.80
2018-11-07T19:47:51.197Z,62.87
2018-11-07T19:50:22.001Z,59.80
2018-11-07T19:52:51.739Z,60.60
2018-11-07T19:55:22.083Z,58.87
2018-11-07T19:57:58.168Z,57.40
2018-11-07T20:00:27.262Z,66.63
2018-11-07T20:02:56.118Z,64.13
2018-11-07T20:05:25.038Z,62.30
2018-11-07T20:07:54.741Z,58.00
2018-11-07T20:10:25.277Z,56.40
2018-11-07T20:12:54.177Z,58.37
2018-11-07T20:15:23.217Z,59.57
2018-11-07T20:17:52.073Z,63.13
2018-11-07T20:20:21.002Z,61.67
2018-11-07T20:22:50.173Z,61.00
2018-11-07T20:25:18.950Z,62.60
2018-11-07T20:27:47.744Z,61.10
2018-11-07T20:30:17.989Z,61.60
2018-11-07T20:32:46.793Z,60.33
2018-11-07T20:35:17.015Z,60.70
2018-11-07T20:37:47.054Z,65.07
2018-11-07T20:40:18.690Z,59.80
2018-11-07T20:42:47.564Z,68.53
2018-11-07T20:45:17.069Z,63.00
2018-11-07T20:47:46.084Z,63.57
2018-11-07T20:50:16.276Z,69.83
2018-11-07T20:52:45.800Z,66.60
2018-11-07T20:55:15.192Z,62.57
2018-11-07T20:57:44.103Z,67.83
2018-11-07T21:00:17.431Z,56.43
2018-11-07T21:02:47.819Z,62.27
2018-11-07T21:05:16.759Z,62.83
2018-11-07T21:07:45.571Z,71.63
2018-11-07T21:10:18.984Z,62.17
2018-11-07T21:12:48.238Z,66.53
2018-11-07T21:15:18.146Z,66.20
2018-11-07T21:17:47.248Z,66.27
2018-11-07T21:20:16.237Z,57.80
2018-11-07T21:22:45.608Z,64.67
2018-11-07T21:25:14.669Z,68.53
2018-11-07T21:27:43.635Z,74.77
2018-11-07T21:30:14.413Z,71.43
2018-11-07T21:32:43.542Z,64.30
2018-11-07T21:35:12.476Z,74.30
2018-11-07T21:37:41.636Z,73.17
2018-11-07T21:40:12.397Z,71.07
2018-11-07T21:42:41.584Z,70.47
2018-11-07T21:45:11.887Z,72.90
2018-11-07T21:47:41.209Z,82.23
2018-11-07T21:50:11.364Z,103.73
2018-11-07T21:52:41.389Z,93.43
2018-11-07T21:55:10.337Z,123.13
2018-11-07T21:57:39.413Z,108.63
2018-11-07T22:00:18.092Z,147.97
2018-11-07T22:02:47.026Z,135.93
2018-11-07T22:05:16.788Z,126.23
2018-11-07T22:07:45.592Z,113.10
2018-11-07T22:10:15.690Z,110.93
2018-11-07T22:12:44.558Z,107.87
2018-11-07T22:15:13.443Z,84.53
2018-11-07T22:17:42.384Z,83.47
2018-11-07T22:20:15.601Z,78.37
2018-11-07T22:22:44.811Z,70.77
2018-11-07T22:25:13.792Z,62.57
2018-11-07T22:27:42.595Z,73.97
2018-11-07T22:30:13.409Z,69.60
2018-11-07T22:32:42.264Z,66.13
2018-11-07T22:35:12.679Z,74.33
2018-11-07T22:37:41.782Z,77.30
2018-11-07T22:40:12.144Z,69.97
2018-11-07T22:42:41.013Z,71.97
2018-11-07T22:45:10.808Z,62.97
2018-11-07T22:47:39.819Z,69.87
2018-11-07T22:50:10.276Z,72.13
2018-11-07T22:52:39.309Z,68.70
2018-11-07T22:55:08.620Z,71.30
2018-11-07T22:57:37.565Z,65.90
2018-11-07T23:00:20.913Z,66.47
2018-11-07T23:02:53.185Z,70.00
2018-11-07T23:05:22.121Z,69.43
2018-11-07T23:07:51.582Z,76.20
2018-11-07T23:10:20.384Z,81.73
2018-11-07T23:12:49.720Z,75.93
2018-11-07T23:15:23.873Z,74.57
2018-11-07T23:17:52.713Z,87.80
2018-11-07T23:20:21.697Z,83.80
2018-11-07T23:22:50.531Z,79.27
2018-11-07T23:25:19.347Z,67.90
2018-11-07T23:27:48.224Z,83.97
2018-11-07T23:30:17.000Z,84.63
2018-11-07T23:32:45.931Z,74.33
2018-11-07T23:35:14.695Z,78.30
2018-11-07T23:37:43.531Z,84.57
2018-11-07T23:40:12.317Z,78.73
2018-11-07T23:42:41.133Z,78.33
2018-11-07T23:45:09.982Z,65.17
2018-11-07T23:47:38.839Z,64.13
2018-11-07T23:50:08.227Z,66.87
2018-11-07T23:52:42.302Z,71.23
2018-11-07T23:55:11.135Z,63.03
2018-11-07T23:57:39.974Z,67.33
